Time;durP1;ratioP1;P1;durP2;ratioP2;P2;SDS_P1;SDS_P2;PMS_P1;PMS_P2;Temp;Humidity;BMP_temperature;BMP_pressure;BME280_temperature;BME280_humidity;BME280_pressure;Samples;Min_cycle;Max_cycle;Signal;HPM_P1;HPM_P2
2023/12/01 00:02:02;;;;;;;26.13;14.93;;;1.10;99.90;;;;;;5013500;28;20184;-85
2023/12/01 00:04:27;;;;;;;28.17;15.53;;;1.10;99.90;;;;;;5013290;28;20641;-86
2023/12/01 00:06:53;;;;;;;30.00;16.67;;;1.10;99.90;;;;;;5013315;28;20208;-85
2023/12/01 00:09:18;;;;;;;30.77;19.53;;;1.00;99.90;;;;;;5012724;28;20173;-86
2023/12/01 00:11:44;;;;;;;33.10;22.10;;;0.90;99.90;;;;;;5013278;28;20175;-85
2023/12/01 00:14:10;;;;;;;36.90;26.17;;;0.90;99.90;;;;;;5013292;28;20177;-85
2023/12/01 00:16:36;;;;;;;34.60;22.33;;;0.90;99.90;;;;;;5014743;28;20193;-86
2023/12/01 00:19:01;;;;;;;30.90;19.83;;;0.90;99.90;;;;;;5014043;28;20169;-86
2023/12/01 00:21:27;;;;;;;37.83;23.80;;;0.90;99.90;;;;;;5012351;28;20184;-85
2023/12/01 00:23:53;;;;;;;44.10;26.60;;;0.90;99.90;;;;;;5012922;28;20227;-85
2023/12/01 00:26:18;;;;;;;38.20;23.53;;;0.90;99.90;;;;;;5014071;28;20225;-85
2023/12/01 00:28:44;;;;;;;32.50;16.97;;;0.90;99.90;;;;;;5013983;28;20246;-84
2023/12/01 00:31:09;;;;;;;33.20;16.97;;;0.90;99.90;;;;;;5012200;28;20176;-85
2023/12/01 00:33:35;;;;;;;32.50;16.40;;;0.90;99.90;;;;;;5012662;28;20269;-85
2023/12/01 00:36:00;;;;;;;30.10;15.63;;;0.80;99.90;;;;;;5014017;28;20268;-85
2023/12/01 00:38:26;;;;;;;30.50;16.17;;;0.80;99.90;;;;;;5013995;28;20288;-86
2023/12/01 00:40:52;;;;;;;30.60;19.37;;;0.80;99.90;;;;;;5013424;28;20217;-85
2023/12/01 00:43:18;;;;;;;31.63;18.47;;;0.80;99.90;;;;;;5012801;28;20176;-85
2023/12/01 00:45:43;;;;;;;29.10;15.30;;;0.80;99.90;;;;;;5013801;28;20177;-85
2023/12/01 00:48:09;;;;;;;30.20;16.47;;;0.70;99.90;;;;;;5012403;28;20736;-85
2023/12/01 00:50:34;;;;;;;34.33;19.00;;;0.70;99.90;;;;;;5011904;28;20350;-86
2023/12/01 00:53:00;;;;;;;35.83;20.40;;;0.70;99.90;;;;;;5013895;28;20176;-86
2023/12/01 00:55:26;;;;;;;28.97;16.23;;;0.70;99.90;;;;;;5013440;28;20236;-85
2023/12/01 00:57:53;;;;;;;30.87;17.90;;;0.70;99.90;;;;;;5012202;28;20311;-86
2023/12/01 01:00:22;;;;;;;31.13;16.30;;;0.70;99.90;;;;;;5011595;28;20187;-85
2023/12/01 01:02:48;;;;;;;28.00;15.33;;;0.80;99.90;;;;;;5013422;28;20535;-85
2023/12/01 01:05:13;;;;;;;28.63;14.40;;;0.70;99.90;;;;;;5012096;28;20670;-86
2023/12/01 01:07:39;;;;;;;29.17;15.03;;;0.80;99.90;;;;;;5012315;28;20207;-86
2023/12/01 01:10:05;;;;;;;27.90;15.93;;;0.80;99.90;;;;;;5012869;28;20184;-85
2023/12/01 01:12:30;;;;;;;30.97;16.80;;;0.80;99.90;;;;;;5012152;28;20182;-85
2023/12/01 01:14:56;;;;;;;27.37;14.50;;;0.70;99.90;;;;;;4995722;28;20272;-85
2023/12/01 01:17:22;;;;;;;27.87;15.00;;;0.70;99.90;;;;;;5011676;28;20230;-85
2023/12/01 01:19:47;;;;;;;29.67;15.43;;;0.70;99.90;;;;;;5011494;28;20275;-85
2023/12/01 01:22:13;;;;;;;31.93;15.37;;;0.70;99.90;;;;;;5013005;28;20206;-85
2023/12/01 01:24:38;;;;;;;28.70;14.47;;;0.70;99.90;;;;;;5013282;28;20211;-85
2023/12/01 01:27:04;;;;;;;32.20;15.80;;;0.70;99.90;;;;;;5012991;28;20223;-85
2023/12/01 01:29:30;;;;;;;31.20;15.47;;;0.60;99.90;;;;;;5012444;28;20211;-85
2023/12/01 01:31:55;;;;;;;33.70;16.20;;;0.60;99.90;;;;;;5012725;28;20183;-85
2023/12/01 01:34:21;;;;;;;30.33;15.40;;;0.60;99.90;;;;;;5013249;28;20203;-83
2023/12/01 01:36:46;;;;;;;35.27;16.50;;;0.60;99.90;;;;;;5011905;28;20241;-81
2023/12/01 01:39:12;;;;;;;31.03;16.23;;;0.60;99.90;;;;;;5011357;28;20186;-85
2023/12/01 01:41:38;;;;;;;31.23;15.80;;;0.60;99.90;;;;;;5011885;28;20540;-85
2023/12/01 01:44:03;;;;;;;30.23;15.70;;;0.60;99.90;;;;;;5012924;28;20327;-81
2023/12/01 01:46:29;;;;;;;33.10;15.60;;;0.60;99.90;;;;;;5011876;28;20196;-85
2023/12/01 01:48:55;;;;;;;32.70;16.63;;;0.60;99.90;;;;;;5012892;28;20180;-85
2023/12/01 01:51:21;;;;;;;32.03;15.97;;;0.60;99.90;;;;;;5011125;28;20554;-85
2023/12/01 01:53:47;;;;;;;31.60;16.27;;;0.60;99.90;;;;;;5011880;28;20179;-85
2023/12/01 01:56:14;;;;;;;30.57;15.40;;;0.60;99.90;;;;;;5011482;28;20559;-85
2023/12/01 01:58:41;;;;;;;32.43;16.43;;;0.60;99.90;;;;;;5011325;28;20683;-85
2023/12/01 02:01:07;;;;;;;33.33;16.07;;;0.60;99.90;;;;;;5012114;28;20257;-85
2023/12/01 02:03:34;;;;;;;31.67;16.43;;;0.60;99.90;;;;;;5012498;28;20176;-85
2023/12/01 02:06:06;;;;;;;33.27;17.10;;;0.50;99.90;;;;;;5012890;28;20181;-85
2023/12/01 02:08:33;;;;;;;35.47;16.10;;;0.50;99.90;;;;;;5011236;28;20191;-85
2023/12/01 02:10:59;;;;;;;33.10;15.60;;;0.40;99.90;;;;;;5012787;28;20249;-85
2023/12/01 02:13:25;;;;;;;32.47;16.47;;;0.40;99.90;;;;;;5013237;28;20206;-85
2023/12/01 02:15:52;;;;;;;33.63;15.57;;;0.40;99.90;;;;;;5012664;28;20167;-85
2023/12/01 02:18:25;;;;;;;35.57;17.03;;;0.50;99.90;;;;;;5010991;28;20242;-83
2023/12/01 02:20:51;;;;;;;32.43;15.87;;;0.50;99.90;;;;;;5011013;28;20175;-85
2023/12/01 02:23:18;;;;;;;33.50;15.77;;;0.50;99.90;;;;;;5012002;28;20226;-86
2023/12/01 02:25:43;;;;;;;31.63;16.13;;;0.50;99.90;;;;;;5011818;28;20241;-85
2023/12/01 02:28:09;;;;;;;29.87;14.53;;;0.50;99.90;;;;;;5012928;28;20648;-86
2023/12/01 02:30:35;;;;;;;28.80;14.70;;;0.50;99.90;;;;;;5010745;28;20180;-85
2023/12/01 02:33:00;;;;;;;26.50;13.50;;;0.50;99.90;;;;;;5011278;28;20652;-85
2023/12/01 02:35:29;;;;;;;29.00;14.00;;;0.60;99.90;;;;;;5010925;28;20176;-85
2023/12/01 02:37:59;;;;;;;27.73;14.80;;;0.50;99.90;;;;;;5010685;28;20195;-85
2023/12/01 02:40:25;;;;;;;27.83;14.33;;;0.50;99.90;;;;;;5010650;28;20318;-85
2023/12/01 02:42:52;;;;;;;26.00;13.67;;;0.50;99.90;;;;;;5012414;28;20179;-85
2023/12/01 02:45:19;;;;;;;26.80;13.63;;;0.50;99.90;;;;;;5012591;28;20176;-85
2023/12/01 02:47:47;;;;;;;28.33;13.83;;;0.40;99.90;;;;;;5010988;28;20270;-85
2023/12/01 02:50:17;;;;;;;27.03;13.53;;;0.40;99.90;;;;;;5010506;28;20180;-85
2023/12/01 02:52:43;;;;;;;24.93;13.07;;;0.40;99.90;;;;;;5011046;28;20180;-86
2023/12/01 02:55:09;;;;;;;25.30;13.30;;;0.30;99.90;;;;;;5012632;28;20595;-85
2023/12/01 02:57:36;;;;;;;26.13;12.53;;;0.30;99.90;;;;;;5030812;22;20305;-85
2023/12/01 03:00:05;;;;;;;25.77;12.90;;;0.30;99.90;;;;;;5053738;28;20166;-85
2023/12/01 03:02:31;;;;;;;28.20;14.17;;;0.30;99.90;;;;;;5055573;28;20650;-85
2023/12/01 03:04:57;;;;;;;26.07;13.60;;;0.30;99.90;;;;;;5054278;28;20209;-85
2023/12/01 03:07:23;;;;;;;26.10;13.03;;;0.30;99.90;;;;;;5053810;28;20299;-85
2023/12/01 03:09:48;;;;;;;27.10;14.67;;;0.30;99.90;;;;;;5053454;28;20174;-85
2023/12/01 03:12:14;;;;;;;27.20;13.77;;;0.20;99.90;;;;;;5055192;28;20170;-85
2023/12/01 03:14:39;;;;;;;31.20;14.57;;;0.30;99.90;;;;;;5055357;28;20165;-85
2023/12/01 03:17:06;;;;;;;26.50;13.60;;;0.30;99.90;;;;;;5053520;28;20681;-85
2023/12/01 03:19:31;;;;;;;29.00;14.47;;;0.30;99.90;;;;;;5053311;28;20185;-85
2023/12/01 03:21:57;;;;;;;30.17;14.23;;;0.30;99.90;;;;;;5055073;28;20178;-85
2023/12/01 03:24:23;;;;;;;30.13;13.57;;;0.30;99.90;;;;;;5053602;28;20178;-86
2023/12/01 03:26:48;;;;;;;27.73;13.97;;;0.30;99.90;;;;;;5054858;28;20284;-85
2023/12/01 03:29:14;;;;;;;28.20;14.50;;;0.30;99.90;;;;;;5054243;28;20194;-85
2023/12/01 03:31:39;;;;;;;29.83;14.73;;;0.30;99.90;;;;;;5053440;28;20178;-85
2023/12/01 03:34:05;;;;;;;28.90;15.00;;;0.20;99.90;;;;;;5054756;28;20170;-85
2023/12/01 03:36:31;;;;;;;26.00;14.13;;;0.30;99.90;;;;;;5054509;28;20273;-86
2023/12/01 03:38:57;;;;;;;30.40;14.70;;;0.30;99.90;;;;;;5054372;28;20273;-85
2023/12/01 03:41:22;;;;;;;26.93;13.87;;;0.40;99.90;;;;;;5054292;28;20663;-85
2023/12/01 03:43:48;;;;;;;26.93;15.10;;;0.40;99.90;;;;;;5053364;28;20178;-85
2023/12/01 03:46:13;;;;;;;28.87;14.83;;;0.30;99.90;;;;;;5054522;28;20198;-85
2023/12/01 03:48:39;;;;;;;29.33;15.00;;;0.30;99.90;;;;;;5054539;28;20191;-85
2023/12/01 03:51:05;;;;;;;30.37;13.90;;;0.30;99.90;;;;;;5052474;28;20170;-85
2023/12/01 03:53:30;;;;;;;24.70;13.43;;;0.30;99.90;;;;;;5054148;28;20205;-85
2023/12/01 03:56:00;;;;;;;29.27;14.83;;;0.20;99.90;;;;;;5053083;28;20170;-86
2023/12/01 03:58:26;;;;;;;23.93;12.90;;;0.20;99.90;;;;;;5053980;28;20217;-85
2023/12/01 04:00:52;;;;;;;27.77;14.23;;;0.20;99.90;;;;;;5052379;28;20242;-85
2023/12/01 04:03:18;;;;;;;29.87;15.17;;;0.30;99.90;;;;;;5052941;28;20212;-85
2023/12/01 04:05:44;;;;;;;25.30;13.47;;;0.20;99.90;;;;;;5053160;28;20200;-85
2023/12/01 04:08:09;;;;;;;23.40;12.83;;;0.20;99.90;;;;;;5053106;28;20209;-85
2023/12/01 04:10:36;;;;;;;26.07;13.30;;;0.20;99.90;;;;;;5053611;28;20170;-85
2023/12/01 04:13:07;;;;;;;26.77;13.50;;;0.30;99.90;;;;;;5054190;28;20174;-85
2023/12/01 04:15:33;;;;;;;26.17;13.37;;;0.20;99.90;;;;;;5052832;28;20181;-85
2023/12/01 04:18:17;;;;;;;24.40;12.87;;;0.20;99.90;;;;;;5052858;28;20201;-85
2023/12/01 04:20:43;;;;;;;29.57;13.47;;;0.20;99.90;;;;;;5053372;28;20157;-85
2023/12/01 04:23:10;;;;;;;24.70;13.23;;;0.20;99.90;;;;;;5053988;28;20182;-85
2023/12/01 04:25:40;;;;;;;27.13;13.23;;;0.10;99.90;;;;;;5052469;28;20177;-85
2023/12/01 04:28:06;;;;;;;28.23;13.73;;;0.10;99.90;;;;;;5053586;28;20209;-85
2023/12/01 04:30:35;;;;;;;25.87;13.40;;;0.00;99.90;;;;;;5053212;28;20247;-85
2023/12/01 04:33:01;;;;;;;23.57;12.87;;;0.00;99.90;;;;;;5053341;28;20182;-85
2023/12/01 04:35:32;;;;;;;25.03;13.27;;;0.00;99.90;;;;;;5053661;28;20200;-87
2023/12/01 04:37:59;;;;;;;22.43;12.77;;;0.00;99.90;;;;;;5053537;28;20197;-85
2023/12/01 04:40:27;;;;;;;20.77;12.07;;;0.00;99.90;;;;;;5051818;28;20178;-85
2023/12/01 04:42:54;;;;;;;25.67;12.50;;;0.00;99.90;;;;;;5053131;28;20173;-87
2023/12/01 04:45:21;;;;;;;19.43;12.23;;;-0.10;99.90;;;;;;5053398;28;20215;-85
2023/12/01 04:47:52;;;;;;;21.00;12.33;;;0.00;99.90;;;;;;5051827;28;20204;-86
2023/12/01 04:50:28;;;;;;;20.17;12.07;;;0.00;99.90;;;;;;5051447;28;20173;-85
2023/12/01 04:52:53;;;;;;;23.40;12.63;;;0.00;99.90;;;;;;5052060;28;20203;-84
2023/12/01 04:55:20;;;;;;;19.03;11.23;;;0.10;99.90;;;;;;5051903;28;20169;-86
2023/12/01 04:57:47;;;;;;;18.67;10.77;;;0.00;99.90;;;;;;5052957;28;20210;-85
2023/12/01 05:00:25;;;;;;;19.23;10.10;;;0.00;99.90;;;;;;5050998;28;20178;-85
2023/12/01 05:03:04;;;;;;;19.67;10.83;;;-0.10;99.90;;;;;;5053024;28;20177;-85
2023/12/01 05:05:35;;;;;;;16.10;9.83;;;-0.10;99.90;;;;;;5051776;28;20260;-85
2023/12/01 05:08:04;;;;;;;15.93;9.77;;;-0.20;99.90;;;;;;5051610;28;20213;-85
2023/12/01 05:10:32;;;;;;;14.97;8.87;;;-0.30;99.90;;;;;;5050952;28;20649;-85
2023/12/01 05:13:05;;;;;;;15.33;9.03;;;-0.30;99.90;;;;;;5051325;28;20650;-85
2023/12/01 05:15:33;;;;;;;17.30;9.27;;;-0.30;99.90;;;;;;5051444;28;20578;-85
2023/12/01 05:18:06;;;;;;;16.57;10.00;;;-0.30;99.90;;;;;;5051002;28;20682;-85
2023/12/01 05:20:32;;;;;;;13.73;8.43;;;-0.30;99.90;;;;;;5050450;28;20178;-86
2023/12/01 05:23:05;;;;;;;16.47;9.60;;;-0.30;99.90;;;;;;5052377;28;20179;-85
2023/12/01 05:25:34;;;;;;;14.30;8.83;;;-0.20;99.90;;;;;;5052761;28;20182;-85
2023/12/01 05:28:02;;;;;;;15.53;9.77;;;-0.10;99.90;;;;;;5052586;28;20201;-84
2023/12/01 05:30:29;;;;;;;14.90;9.17;;;-0.10;99.90;;;;;;5050808;28;20201;-84
2023/12/01 05:32:56;;;;;;;13.77;8.53;;;-0.20;99.90;;;;;;5052505;28;20174;-85
2023/12/01 05:35:22;;;;;;;14.10;8.83;;;-0.20;99.90;;;;;;5052557;28;20192;-85
2023/12/01 05:37:52;;;;;;;14.93;9.27;;;-0.20;99.90;;;;;;5052715;28;20645;-85
2023/12/01 05:40:22;;;;;;;16.27;9.03;;;-0.10;99.90;;;;;;5052334;28;20170;-83
2023/12/01 05:42:49;;;;;;;13.93;8.60;;;0.10;99.90;;;;;;5053310;28;20269;-83
2023/12/01 05:45:16;;;;;;;15.10;8.47;;;0.80;99.90;;;;;;5051637;28;20231;-83
2023/12/01 05:47:46;;;;;;;13.50;9.30;;;1.20;99.90;;;;;;5052966;28;20209;-83
2023/12/01 05:50:13;;;;;;;12.90;8.00;;;1.40;99.90;;;;;;5052400;28;20171;-83
2023/12/01 05:52:45;;;;;;;11.10;7.70;;;1.50;99.90;;;;;;5051427;28;20270;-84
2023/12/01 05:55:14;;;;;;;12.60;8.30;;;1.80;99.90;;;;;;5051182;28;20224;-84
2023/12/01 05:57:44;;;;;;;12.67;8.63;;;1.50;99.90;;;;;;5051294;28;20263;-83
2023/12/01 06:00:17;;;;;;;16.27;11.47;;;1.00;99.90;;;;;;5051799;28;20173;-84
2023/12/01 06:02:44;;;;;;;11.90;7.43;;;0.60;99.90;;;;;;5051173;28;20173;-83
2023/12/01 06:05:13;;;;;;;12.73;8.63;;;0.50;99.90;;;;;;5052312;28;20186;-83
2023/12/01 06:07:52;;;;;;;11.43;7.80;;;0.40;99.90;;;;;;5052014;28;20328;-83
2023/12/01 06:10:18;;;;;;;11.37;7.40;;;0.30;99.90;;;;;;5051693;28;20262;-84
2023/12/01 06:12:44;;;;;;;17.23;10.63;;;0.20;99.90;;;;;;5051099;28;20170;-83
2023/12/01 06:15:12;;;;;;;16.90;10.80;;;0.10;99.90;;;;;;5050917;28;20555;-83
2023/12/01 06:17:39;;;;;;;19.80;12.63;;;0.10;99.90;;;;;;5050901;28;20289;-83
2023/12/01 06:20:16;;;;;;;40.50;26.03;;;0.00;99.90;;;;;;5051376;28;20659;-83
2023/12/01 06:23:05;;;;;;;16.10;10.60;;;0.00;99.90;;;;;;5052241;28;20162;-84
2023/12/01 06:25:33;;;;;;;13.00;8.23;;;0.00;99.90;;;;;;5050569;28;20207;-84
2023/12/01 06:28:01;;;;;;;13.37;8.73;;;-0.10;99.90;;;;;;5052140;28;20205;-84
2023/12/01 06:30:28;;;;;;;17.43;9.83;;;-0.20;99.90;;;;;;5052348;28;20664;-84
2023/12/01 06:32:54;;;;;;;15.33;10.03;;;-0.30;99.90;;;;;;5054673;28;20166;-83
2023/12/01 06:35:21;;;;;;;14.77;9.63;;;-0.30;99.90;;;;;;5055877;28;20544;-84
2023/12/01 06:37:47;;;;;;;17.37;11.40;;;-0.20;99.90;;;;;;5055628;28;20397;-83
2023/12/01 06:40:17;;;;;;;23.40;14.70;;;-0.20;99.90;;;;;;5055694;28;20251;-83
2023/12/01 06:42:46;;;;;;;15.20;9.53;;;-0.20;99.90;;;;;;5055698;28;20174;-83
2023/12/01 06:45:13;;;;;;;13.47;8.70;;;-0.20;99.90;;;;;;5055486;28;20203;-83
2023/12/01 06:47:41;;;;;;;22.23;13.97;;;-0.30;99.90;;;;;;5054152;28;20237;-83
2023/12/01 06:50:11;;;;;;;20.43;12.87;;;-0.30;99.90;;;;;;5054732;28;20256;-83
2023/12/01 06:52:38;;;;;;;13.67;8.43;;;-0.20;99.90;;;;;;5053775;28;20174;-83
2023/12/01 06:55:05;;;;;;;13.97;9.43;;;-0.20;99.90;;;;;;5055625;28;20174;-83
2023/12/01 06:57:30;;;;;;;17.00;12.07;;;-0.20;99.90;;;;;;5054840;28;20274;-85
2023/12/01 06:59:56;;;;;;;15.13;10.00;;;-0.30;99.90;;;;;;5054868;28;20552;-83
2023/12/01 07:02:23;;;;;;;15.97;10.80;;;-0.30;99.90;;;;;;5053929;28;20181;-83
2023/12/01 07:04:49;;;;;;;18.53;12.33;;;-0.30;99.90;;;;;;5053886;28;20260;-84
2023/12/01 07:07:14;;;;;;;23.50;16.63;;;-0.20;99.90;;;;;;5054737;28;20305;-83
2023/12/01 07:09:47;;;;;;;20.30;13.30;;;-0.20;99.90;;;;;;5053146;28;20645;-82
2023/12/01 07:12:13;;;;;;;19.97;13.53;;;-0.10;99.90;;;;;;5054134;28;20174;-84
2023/12/01 07:14:38;;;;;;;16.27;10.63;;;-0.20;99.90;;;;;;5054065;28;20530;-83
2023/12/01 07:17:07;;;;;;;13.73;9.13;;;-0.20;99.90;;;;;;5053623;28;20185;-83
2023/12/01 07:19:34;;;;;;;14.00;9.23;;;-0.20;99.90;;;;;;5054581;28;20185;-84
2023/12/01 07:22:00;;;;;;;14.90;8.83;;;-0.10;99.90;;;;;;5054736;28;20182;-83
2023/12/01 07:24:25;;;;;;;21.83;14.00;;;-0.10;99.90;;;;;;5054888;28;20208;-83
2023/12/01 07:26:52;;;;;;;20.03;12.53;;;-0.20;99.90;;;;;;5054588;28;20202;-83
2023/12/01 07:29:18;;;;;;;16.10;10.37;;;-0.20;99.90;;;;;;5054002;28;20475;-83
2023/12/01 07:31:44;;;;;;;20.77;13.70;;;-0.30;99.90;;;;;;5053453;28;20264;-83
2023/12/01 07:34:13;;;;;;;18.27;12.27;;;-0.20;99.90;;;;;;5053111;28;20257;-82
2023/12/01 07:36:39;;;;;;;12.37;8.13;;;-0.30;99.90;;;;;;5054536;28;20173;-81
2023/12/01 07:39:05;;;;;;;12.00;7.70;;;-0.30;99.90;;;;;;5052915;28;20300;-82
2023/12/01 07:41:34;;;;;;;14.20;9.07;;;-0.30;99.90;;;;;;5052243;28;20736;-82
2023/12/01 07:43:59;;;;;;;20.57;14.23;;;-0.30;99.90;;;;;;5052835;28;20173;-82
2023/12/01 07:46:25;;;;;;;16.03;11.80;;;-0.20;99.90;;;;;;5053181;28;20196;-82
2023/12/01 07:48:50;;;;;;;24.10;17.70;;;-0.20;99.90;;;;;;5052711;28;20251;-82
2023/12/01 07:51:16;;;;;;;12.27;8.07;;;-0.20;99.90;;;;;;5053714;28;20177;-82
2023/12/01 07:53:44;;;;;;;10.30;6.97;;;-0.10;99.90;;;;;;5053174;28;20177;-83
2023/12/01 07:56:11;;;;;;;11.23;7.50;;;-0.10;99.90;;;;;;5052972;28;20204;-82
2023/12/01 07:58:36;;;;;;;12.33;7.90;;;0.00;99.90;;;;;;5052605;28;20205;-83
2023/12/01 08:01:03;;;;;;;13.50;10.43;;;0.00;99.90;;;;;;5052182;28;20555;-83
2023/12/01 08:03:28;;;;;;;14.50;10.43;;;0.00;99.90;;;;;;5052445;28;20170;-83
2023/12/01 08:05:54;;;;;;;9.43;7.40;;;0.00;99.90;;;;;;5054940;28;20175;-85
2023/12/01 08:08:20;;;;;;;11.63;9.23;;;0.10;99.90;;;;;;5054509;28;20642;-85
2023/12/01 08:10:46;;;;;;;14.53;10.27;;;0.10;99.90;;;;;;5053631;28;20253;-83
2023/12/01 08:13:11;;;;;;;15.73;12.00;;;0.00;99.90;;;;;;5052987;28;20204;-85
2023/12/01 08:15:37;;;;;;;13.53;9.83;;;0.00;99.90;;;;;;5052497;28;20185;-85
2023/12/01 08:18:04;;;;;;;14.30;10.73;;;0.00;99.90;;;;;;5052676;28;20201;-85
2023/12/01 08:20:29;;;;;;;11.67;8.40;;;0.00;99.90;;;;;;5047899;28;20185;-84
2023/12/01 08:22:57;;;;;;;13.30;9.90;;;0.00;99.90;;;;;;5052717;28;20254;-85
2023/12/01 08:25:22;;;;;;;16.80;12.83;;;-0.10;99.90;;;;;;5052934;28;20209;-84
2023/12/01 08:27:48;;;;;;;22.20;16.23;;;0.00;99.90;;;;;;5054171;28;20256;-84
2023/12/01 08:30:15;;;;;;;14.30;11.90;;;0.00;99.90;;;;;;5047094;28;20214;-84
2023/12/01 08:32:40;;;;;;;27.87;21.37;;;0.10;99.90;;;;;;5052325;28;20178;-85
2023/12/01 08:35:06;;;;;;;33.23;23.83;;;0.10;99.90;;;;;;5052692;28;20176;-86
2023/12/01 08:37:32;;;;;;;20.40;14.90;;;0.00;99.90;;;;;;5054032;28;20224;-85
2023/12/01 08:39:57;;;;;;;20.30;17.33;;;0.00;99.90;;;;;;5052095;28;20251;-85
2023/12/01 08:42:23;;;;;;;14.73;11.10;;;0.00;99.90;;;;;;5053869;28;20182;-85
2023/12/01 08:44:49;;;;;;;17.30;12.67;;;0.10;99.90;;;;;;5052072;28;20178;-84
2023/12/01 08:47:19;;;;;;;11.93;9.77;;;0.10;99.90;;;;;;5051065;28;20566;-85
2023/12/01 08:49:45;;;;;;;11.73;9.13;;;0.20;99.90;;;;;;5052258;28;20552;-85
2023/12/01 08:52:11;;;;;;;12.37;8.60;;;0.10;99.90;;;;;;5051706;28;20177;-86
2023/12/01 08:54:36;;;;;;;14.73;9.97;;;0.20;99.90;;;;;;5051021;28;20185;-86
2023/12/01 08:57:02;;;;;;;14.13;9.73;;;0.10;99.90;;;;;;5050841;28;20177;-86
2023/12/01 08:59:27;;;;;;;12.57;9.27;;;0.10;99.90;;;;;;5051706;28;20181;-85
2023/12/01 09:01:53;;;;;;;12.50;10.30;;;0.20;99.90;;;;;;5052933;28;20186;-85
2023/12/01 09:04:20;;;;;;;13.03;9.73;;;0.20;99.90;;;;;;5052417;28;20193;-86
2023/12/01 09:06:45;;;;;;;11.47;7.80;;;0.20;99.90;;;;;;5052415;28;20197;-85
2023/12/01 09:09:12;;;;;;;13.90;12.00;;;0.10;99.90;;;;;;5052276;28;20272;-85
2023/12/01 09:11:37;;;;;;;15.60;11.93;;;0.20;99.90;;;;;;5052467;28;20544;-86
2023/12/01 09:14:03;;;;;;;16.27;14.57;;;0.10;99.90;;;;;;5052540;28;20249;-85
2023/12/01 09:16:29;;;;;;;15.80;13.53;;;0.20;99.90;;;;;;5052457;28;20220;-85
2023/12/01 09:18:54;;;;;;;14.23;12.40;;;0.20;99.90;;;;;;5052497;28;20228;-85
2023/12/01 09:21:20;;;;;;;12.40;9.70;;;0.30;99.90;;;;;;5051140;28;20185;-85
2023/12/01 09:23:45;;;;;;;9.87;7.03;;;0.30;99.90;;;;;;5051632;28;20177;-85
2023/12/01 09:26:17;;;;;;;10.73;7.87;;;0.30;99.90;;;;;;5051348;28;20178;-85
2023/12/01 09:28:43;;;;;;;10.57;7.03;;;0.30;99.90;;;;;;5051417;28;20202;-84
2023/12/01 09:31:10;;;;;;;11.53;8.43;;;0.20;99.90;;;;;;5050809;28;20185;-84
2023/12/01 09:33:37;;;;;;;11.07;7.40;;;0.20;99.90;;;;;;5051753;28;20212;-85
2023/12/01 09:36:03;;;;;;;12.60;7.70;;;0.20;99.90;;;;;;5052964;28;20194;-84
2023/12/01 09:38:28;;;;;;;15.23;9.00;;;0.20;99.90;;;;;;5052895;28;20223;-84
2023/12/01 09:40:54;;;;;;;11.23;8.30;;;0.20;99.90;;;;;;5051246;28;20174;-84
2023/12/01 09:43:20;;;;;;;11.60;7.07;;;0.20;99.90;;;;;;5051257;28;20180;-85
2023/12/01 09:45:45;;;;;;;11.37;7.50;;;0.20;99.90;;;;;;5053298;28;20261;-85
2023/12/01 09:48:13;;;;;;;11.80;7.27;;;0.30;99.90;;;;;;5052796;28;20629;-85
2023/12/01 09:50:39;;;;;;;11.33;7.43;;;0.20;99.90;;;;;;5052206;28;20252;-85
2023/12/01 09:53:05;;;;;;;10.93;7.30;;;0.10;99.90;;;;;;5051060;28;20257;-84
2023/12/01 09:55:33;;;;;;;13.57;7.90;;;0.10;99.90;;;;;;5052077;28;20193;-84
2023/12/01 09:57:59;;;;;;;13.43;8.60;;;0.20;99.90;;;;;;5050714;28;20788;-84
2023/12/01 10:00:25;;;;;;;12.37;8.50;;;0.20;99.90;;;;;;5051823;28;20260;-84
2023/12/01 10:02:51;;;;;;;12.47;8.10;;;0.30;99.90;;;;;;5052216;28;20166;-84
2023/12/01 10:05:19;;;;;;;14.37;9.80;;;0.20;99.90;;;;;;5052125;28;20177;-85
2023/12/01 10:07:45;;;;;;;14.23;8.53;;;0.30;99.90;;;;;;5056260;28;20209;-85
2023/12/01 10:10:19;;;;;;;12.60;8.03;;;0.20;99.90;;;;;;5056037;28;20186;-85
2023/12/01 10:12:58;;;;;;;11.40;7.53;;;0.30;99.90;;;;;;5056473;28;20646;-84
2023/12/01 10:15:25;;;;;;;15.03;8.80;;;0.30;99.90;;;;;;5055067;28;20178;-84
2023/12/01 10:18:06;;;;;;;14.40;8.67;;;0.40;99.90;;;;;;5054673;28;20228;-84
2023/12/01 10:20:32;;;;;;;13.53;8.43;;;0.40;99.90;;;;;;5055606;28;20181;-84
2023/12/01 10:22:57;;;;;;;12.03;7.80;;;0.40;99.90;;;;;;5055569;28;20178;-83
2023/12/01 10:25:23;;;;;;;13.60;8.63;;;0.30;99.90;;;;;;5055636;28;20181;-83
2023/12/01 10:27:55;;;;;;;13.90;9.27;;;0.20;99.90;;;;;;5055526;28;20201;-84
2023/12/01 10:30:22;;;;;;;20.00;13.10;;;0.20;99.90;;;;;;5055342;28;20177;-84
2023/12/01 10:32:47;;;;;;;16.03;10.00;;;0.30;99.90;;;;;;5054573;28;20197;-83
2023/12/01 10:35:13;;;;;;;21.97;13.17;;;0.30;99.90;;;;;;5054214;28;20244;-83
2023/12/01 10:37:39;;;;;;;14.60;9.60;;;0.10;99.90;;;;;;5054192;28;20713;-85
2023/12/01 10:40:10;;;;;;;19.87;13.27;;;0.10;99.90;;;;;;5055056;28;20204;-83
2023/12/01 10:42:36;;;;;;;15.13;11.03;;;0.00;99.90;;;;;;5055602;28;20605;-83
2023/12/01 10:45:02;;;;;;;19.50;12.60;;;0.00;99.90;;;;;;5055832;28;20178;-83
2023/12/01 10:47:29;;;;;;;14.07;8.73;;;0.00;99.90;;;;;;5053807;28;20263;-83
2023/12/01 10:49:58;;;;;;;14.20;8.40;;;0.10;99.90;;;;;;5053451;28;20178;-83
2023/12/01 10:52:27;;;;;;;16.90;12.27;;;0.10;99.90;;;;;;5055458;28;20170;-83
2023/12/01 10:54:53;;;;;;;14.70;9.40;;;0.30;99.90;;;;;;5053980;28;20227;-83
2023/12/01 10:57:33;;;;;;;13.53;8.50;;;0.30;99.90;;;;;;5053724;28;20201;-84
2023/12/01 11:00:03;;;;;;;15.23;8.90;;;0.20;99.90;;;;;;5054480;28;20268;-83
2023/12/01 11:02:31;;;;;;;12.87;8.00;;;0.30;99.90;;;;;;5053787;28;20173;-83
2023/12/01 11:04:58;;;;;;;20.67;15.17;;;0.40;99.90;;;;;;5053895;28;20183;-82
2023/12/01 11:07:27;;;;;;;15.13;9.50;;;0.40;99.90;;;;;;5070045;28;20231;-84
2023/12/01 11:10:22;;;;;;;11.33;6.87;;;0.40;99.90;;;;;;5053813;28;20179;-83
2023/12/01 11:13:04;;;;;;;18.77;12.00;;;0.30;99.90;;;;;;5024142;28;20178;-82
2023/12/01 11:15:33;;;;;;;45.87;27.63;;;0.30;99.90;;;;;;5033888;28;20205;-83
2023/12/01 11:17:59;;;;;;;17.10;11.00;;;0.30;99.90;;;;;;5042117;28;20204;-82
2023/12/01 11:20:36;;;;;;;23.83;18.23;;;0.30;99.90;;;;;;5054129;28;20171;-85
2023/12/01 11:23:07;;;;;;;18.80;13.20;;;0.20;99.90;;;;;;5054871;28;20165;-83
2023/12/01 11:26:05;;;;;;;12.57;7.97;;;0.30;99.90;;;;;;5053887;28;20177;-85
2023/12/01 11:31:19;;;;;;;13.20;8.60;;;0.90;99.90;;;;;;5054123;28;20227;-85
2023/12/01 11:33:56;;;;;;;15.07;8.77;;;1.00;99.90;;;;;;5053359;28;20178;-86
2023/12/01 11:36:54;;;;;;;13.63;8.87;;;0.90;99.90;;;;;;5053434;28;20170;-85
2023/12/01 11:39:29;;;;;;;13.67;7.80;;;1.10;99.90;;;;;;5041260;28;20194;-83
2023/12/01 11:41:59;;;;;;;12.83;8.60;;;1.10;99.90;;;;;;5055525;28;20208;-84
2023/12/01 11:44:37;;;;;;;14.30;9.30;;;0.90;99.90;;;;;;5055213;28;20190;-85
2023/12/01 11:47:04;;;;;;;10.83;7.87;;;0.40;99.90;;;;;;5054493;28;20193;-83
2023/12/01 11:49:44;;;;;;;19.20;12.43;;;0.30;99.90;;;;;;5053738;28;20169;-82
2023/12/01 11:52:20;;;;;;;12.67;8.23;;;0.30;99.90;;;;;;5054717;28;20247;-84
2023/12/01 11:54:47;;;;;;;34.83;13.57;;;0.40;99.90;;;;;;5054340;28;20169;-83
2023/12/01 11:57:17;;;;;;;28.57;13.17;;;1.10;99.90;;;;;;5053726;28;20634;-84
2023/12/01 11:59:43;;;;;;;15.13;9.57;;;1.80;99.90;;;;;;5053514;28;20223;-83
2023/12/01 12:02:09;;;;;;;14.13;9.40;;;1.10;99.90;;;;;;5053921;28;20177;-83
2023/12/01 12:04:37;;;;;;;15.27;9.43;;;0.60;99.90;;;;;;5052464;28;20247;-84
2023/12/01 12:07:05;;;;;;;14.20;9.63;;;0.40;99.90;;;;;;5053790;28;20218;-84
2023/12/01 12:09:32;;;;;;;14.87;8.77;;;0.40;99.90;;;;;;5051812;28;20642;-83
2023/12/01 12:11:59;;;;;;;13.20;8.40;;;0.20;99.90;;;;;;5053971;28;20176;-83
2023/12/01 12:14:28;;;;;;;13.67;8.40;;;0.10;99.90;;;;;;5052432;28;20166;-83
2023/12/01 12:16:54;;;;;;;14.13;8.23;;;0.10;99.90;;;;;;5052478;28;20220;-84
2023/12/01 12:19:20;;;;;;;14.57;9.37;;;0.00;99.90;;;;;;5052890;28;20197;-83
2023/12/01 12:21:47;;;;;;;14.37;8.53;;;0.00;99.90;;;;;;5052255;28;20261;-83
2023/12/01 12:24:13;;;;;;;14.27;8.33;;;0.10;99.90;;;;;;5053576;28;20178;-83
2023/12/01 12:26:38;;;;;;;15.40;8.40;;;0.00;99.90;;;;;;5053526;28;20220;-83
2023/12/01 12:29:05;;;;;;;16.20;9.03;;;0.00;99.90;;;;;;5052596;28;20190;-84
2023/12/01 12:31:35;;;;;;;14.07;8.77;;;0.10;99.90;;;;;;5051753;28;20220;-83
2023/12/01 12:34:01;;;;;;;16.77;10.17;;;0.10;99.90;;;;;;5051891;28;20177;-83
2023/12/01 12:36:29;;;;;;;15.43;9.50;;;0.10;99.90;;;;;;5048848;28;20173;-83
2023/12/01 12:38:59;;;;;;;15.07;9.20;;;0.00;99.90;;;;;;5051310;28;20190;-83
2023/12/01 12:41:25;;;;;;;13.73;8.53;;;-0.10;99.90;;;;;;5044917;28;20213;-84
2023/12/01 12:43:52;;;;;;;15.67;9.33;;;-0.20;99.90;;;;;;5051742;28;20177;-83